Time;durP1;ratioP1;P1;durP2;ratioP2;P2;SDS_P1;SDS_P2;PMS_P1;PMS_P2;Temp;Humidity;BMP_temperature;BMP_pressure;BME280_temperature;BME280_humidity;BME280_pressure;Samples;Min_cycle;Max_cycle;Signal;HPM_P1;HPM_P2
2022/05/19 00:00:01;;;;;;;4.78;2.80;;;22.70;36.00;;;;;;6284661;27;81422;-67
2022/05/19 00:03:01;;;;;;;6.75;3.50;;;22.70;36.00;;;;;;6284500;27;81587;-67
2022/05/19 00:06:05;;;;;;;7.72;3.45;;;22.70;36.10;;;;;;6283836;27;80587;-68
2022/05/19 00:09:05;;;;;;;5.82;3.03;;;22.70;36.10;;;;;;6284791;27;80486;-68
2022/05/19 00:12:06;;;;;;;7.00;3.47;;;22.70;36.10;;;;;;6285180;27;81041;-68
2022/05/19 00:15:06;;;;;;;7.22;3.13;;;22.70;36.10;;;;;;6284202;27;80392;-67
2022/05/19 00:18:08;;;;;;;12.90;4.07;;;22.60;36.10;;;;;;6285035;27;80795;-67
2022/05/19 00:21:08;;;;;;;7.13;3.42;;;22.60;36.10;;;;;;6285115;27;80268;-67
2022/05/19 00:24:09;;;;;;;6.50;3.58;;;22.60;36.10;;;;;;6283054;27;80616;-67
2022/05/19 00:27:09;;;;;;;8.98;3.05;;;22.70;36.20;;;;;;6284730;27;81362;-68
2022/05/19 00:30:10;;;;;;;5.57;3.25;;;22.60;36.10;;;;;;6283580;27;80373;-67
2022/05/19 00:33:10;;;;;;;6.80;2.92;;;22.60;36.20;;;;;;6284441;27;81130;-67
2022/05/19 00:36:11;;;;;;;5.00;2.85;;;22.60;36.20;;;;;;6284531;27;80478;-67
2022/05/19 00:39:13;;;;;;;6.63;3.67;;;22.60;36.20;;;;;;6280619;27;80437;-67
2022/05/19 00:45:47;;;;;;;5.97;3.20;;;22.60;36.20;;;;;;6259055;27;82275;-67
2022/05/19 00:48:47;;;;;;;4.97;3.17;;;22.60;36.20;;;;;;6284377;27;80400;-67
2022/05/19 00:51:48;;;;;;;7.22;3.58;;;22.60;36.20;;;;;;6284575;27;80561;-68
2022/05/19 00:54:49;;;;;;;5.43;3.00;;;22.60;36.20;;;;;;6284279;27;80531;-67
2022/05/19 00:57:50;;;;;;;8.77;3.13;;;22.60;36.20;;;;;;6283737;27;80696;-66
2022/05/19 01:00:50;;;;;;;5.93;3.08;;;22.60;36.90;;;;;;6283773;27;80588;-67
2022/05/19 01:03:52;;;;;;;4.85;3.17;;;22.60;36.20;;;;;;6284480;27;80123;-67
2022/05/19 01:06:53;;;;;;;7.43;3.28;;;22.60;36.20;;;;;;6284412;27;81150;-67
2022/05/19 01:09:54;;;;;;;5.28;3.40;;;22.60;36.20;;;;;;6283994;27;80593;-67
2022/05/19 01:12:54;;;;;;;6.85;3.15;;;22.60;36.20;;;;;;6284091;27;80528;-67
2022/05/19 01:15:55;;;;;;;4.20;2.90;;;22.60;36.20;;;;;;6283366;27;80460;-66
2022/05/19 01:18:55;;;;;;;5.80;3.20;;;22.60;36.30;;;;;;6281812;27;80521;-66
2022/05/19 01:21:56;;;;;;;4.40;2.70;;;22.60;36.20;;;;;;6280633;27;80362;-66
2022/05/19 01:24:56;;;;;;;5.00;2.90;;;22.60;36.30;;;;;;6283553;27;80444;-67
2022/05/19 01:27:57;;;;;;;5.05;2.80;;;22.50;36.30;;;;;;6281783;27;80842;-67
2022/05/19 01:30:57;;;;;;;5.60;3.53;;;22.50;36.30;;;;;;6283710;27;80717;-67
2022/05/19 01:33:58;;;;;;;7.05;3.50;;;22.60;36.30;;;;;;6283565;27;81032;-67
2022/05/19 01:36:59;;;;;;;6.57;3.17;;;22.60;36.40;;;;;;6283380;27;80839;-68
2022/05/19 01:40:06;;;;;;;5.05;3.05;;;22.50;36.30;;;;;;6276472;27;83045;-68
2022/05/19 01:43:06;;;;;;;5.80;3.17;;;22.50;36.30;;;;;;6281896;27;80391;-67
2022/05/19 01:46:07;;;;;;;6.93;3.22;;;22.50;36.40;;;;;;6273965;27;81085;-68
2022/05/19 01:49:07;;;;;;;8.90;3.10;;;22.50;36.40;;;;;;6283430;27;80478;-68
2022/05/19 01:52:08;;;;;;;5.90;3.05;;;22.50;36.40;;;;;;6283180;27;80497;-68
2022/05/19 01:55:08;;;;;;;6.63;3.22;;;22.50;36.40;;;;;;6281739;27;80442;-68
2022/05/19 01:58:09;;;;;;;6.00;3.38;;;22.50;36.50;;;;;;6283338;27;80450;-66
2022/05/19 02:01:09;;;;;;;6.07;2.95;;;22.50;36.50;;;;;;6283169;27;80953;-67
2022/05/19 02:04:10;;;;;;;6.68;3.45;;;22.50;36.50;;;;;;6281781;27;81568;-67
2022/05/19 02:07:10;;;;;;;6.63;3.30;;;22.50;36.50;;;;;;6282558;27;80985;-68
2022/05/19 02:10:12;;;;;;;7.15;3.20;;;22.50;36.40;;;;;;6279441;27;81323;-67
2022/05/19 02:13:12;;;;;;;7.03;2.97;;;22.50;36.50;;;;;;6281370;27;83407;-67
2022/05/19 02:16:13;;;;;;;8.00;3.35;;;22.50;36.40;;;;;;6282631;27;80741;-66
2022/05/19 02:19:14;;;;;;;7.07;3.40;;;22.50;36.40;;;;;;6278238;27;80472;-67
2022/05/19 02:22:14;;;;;;;5.75;3.10;;;22.50;36.40;;;;;;6282714;27;80845;-66
2022/05/19 02:25:15;;;;;;;7.20;3.22;;;22.50;36.40;;;;;;6277883;27;80413;-66
2022/05/19 02:28:15;;;;;;;8.07;3.50;;;22.50;36.40;;;;;;6282595;27;80955;-66
2022/05/19 02:31:16;;;;;;;4.88;2.83;;;22.50;36.40;;;;;;6277698;27;80836;-66
2022/05/19 02:34:16;;;;;;;5.70;3.42;;;22.50;36.30;;;;;;6286953;27;80269;-67
2022/05/19 02:37:17;;;;;;;5.20;2.80;;;22.50;36.30;;;;;;6282906;27;81740;-67
2022/05/19 02:40:17;;;;;;;6.63;3.55;;;22.50;36.40;;;;;;6287342;27;80662;-67
2022/05/19 02:43:18;;;;;;;4.85;2.92;;;22.40;36.40;;;;;;6285379;27;81962;-67
2022/05/19 02:46:19;;;;;;;6.00;3.45;;;22.50;36.50;;;;;;6282511;27;80450;-66
2022/05/19 02:49:19;;;;;;;5.55;3.30;;;22.50;37.10;;;;;;6285265;27;82137;-67
2022/05/19 02:52:20;;;;;;;4.95;3.17;;;22.50;36.50;;;;;;6284532;27;80288;-67
2022/05/19 02:55:20;;;;;;;5.80;3.60;;;22.50;36.50;;;;;;6286719;27;80278;-67
2022/05/19 02:58:21;;;;;;;5.63;2.65;;;22.40;37.10;;;;;;6286569;27;80228;-68
2022/05/19 03:01:21;;;;;;;19.20;3.60;;;22.40;36.50;;;;;;6286857;27;80311;-67
2022/05/19 03:04:22;;;;;;;6.65;3.30;;;22.40;36.50;;;;;;6286743;27;80567;-68
2022/05/19 03:07:23;;;;;;;5.80;3.00;;;22.40;36.50;;;;;;6278821;27;81692;-68
2022/05/19 03:10:23;;;;;;;7.95;4.13;;;22.40;36.60;;;;;;6286365;27;81699;-67
2022/05/19 03:13:24;;;;;;;7.10;3.53;;;22.40;36.50;;;;;;6286015;27;80453;-67
2022/05/19 03:16:24;;;;;;;4.93;3.00;;;22.40;36.50;;;;;;6285267;27;80134;-68
2022/05/19 03:19:25;;;;;;;7.53;3.30;;;22.40;36.50;;;;;;6267922;27;80327;-69
2022/05/19 03:22:26;;;;;;;5.78;3.05;;;22.40;36.50;;;;;;6278740;27;81086;-68
2022/05/19 03:25:27;;;;;;;7.43;3.85;;;22.40;36.60;;;;;;6285592;27;80615;-68
2022/05/19 03:28:28;;;;;;;6.68;3.33;;;22.50;36.60;;;;;;6285810;27;81408;-67
2022/05/19 03:31:29;;;;;;;4.80;3.20;;;22.50;36.60;;;;;;6286000;27;80701;-67
2022/05/19 03:34:29;;;;;;;6.90;3.83;;;22.50;36.50;;;;;;6281836;27;80569;-67
2022/05/19 03:37:30;;;;;;;6.10;3.75;;;22.40;37.30;;;;;;6281757;27;80777;-66
2022/05/19 03:40:30;;;;;;;9.73;3.72;;;22.40;36.60;;;;;;6285575;27;80423;-69
2022/05/19 03:43:31;;;;;;;5.72;3.00;;;22.40;36.70;;;;;;6280517;27;81975;-69
2022/05/19 03:46:31;;;;;;;5.80;3.08;;;22.40;36.90;;;;;;6283946;27;80418;-67
2022/05/19 03:49:32;;;;;;;4.28;3.10;;;22.40;36.90;;;;;;6285473;27;81431;-67
2022/05/19 03:52:32;;;;;;;8.32;3.45;;;22.40;36.90;;;;;;6285873;27;80005;-67
2022/05/19 03:55:33;;;;;;;5.88;3.42;;;22.50;37.20;;;;;;6285639;27;81104;-66
2022/05/19 03:58:33;;;;;;;5.07;3.28;;;22.50;37.40;;;;;;6283047;27;79975;-66
2022/05/19 04:01:34;;;;;;;7.45;3.50;;;22.50;37.50;;;;;;6269173;27;80219;-65
2022/05/19 04:04:35;;;;;;;7.13;3.30;;;22.50;37.40;;;;;;6284059;27;80523;-66
2022/05/19 04:07:37;;;;;;;5.10;3.13;;;22.50;37.70;;;;;;6284935;27;80396;-67
2022/05/19 04:10:37;;;;;;;7.43;3.33;;;22.50;37.70;;;;;;6284842;27;81014;-67
2022/05/19 04:13:38;;;;;;;10.23;3.67;;;22.50;37.80;;;;;;6284805;27;80238;-66
2022/05/19 04:16:38;;;;;;;8.63;3.42;;;22.50;37.60;;;;;;6271613;27;80818;-66
2022/05/19 04:19:39;;;;;;;5.13;3.42;;;22.50;38.00;;;;;;6274668;27;80364;-67
2022/05/19 04:22:40;;;;;;;9.18;3.50;;;22.50;38.20;;;;;;6271594;27;80115;-66
2022/05/19 04:25:41;;;;;;;13.40;4.72;;;22.50;38.30;;;;;;6282666;27;82232;-67
2022/05/19 04:28:42;;;;;;;9.77;3.80;;;22.50;38.10;;;;;;6283979;27;80838;-66
2022/05/19 04:31:42;;;;;;;7.18;3.78;;;22.60;38.20;;;;;;6284997;27;80463;-68
2022/05/19 04:34:43;;;;;;;11.93;3.85;;;22.60;38.40;;;;;;6284448;27;80451;-67
2022/05/19 04:37:44;;;;;;;9.90;3.50;;;22.60;38.40;;;;;;6283187;27;80384;-68
2022/05/19 04:40:47;;;;;;;10.75;3.88;;;22.60;38.80;;;;;;6282729;27;81970;-62
2022/05/19 04:43:48;;;;;;;9.30;4.30;;;22.60;38.80;;;;;;6274910;27;80412;-64
2022/05/19 04:46:49;;;;;;;6.88;3.50;;;22.60;38.70;;;;;;6280038;27;80428;-64
2022/05/19 04:49:49;;;;;;;8.98;3.90;;;22.60;38.70;;;;;;6284057;27;80272;-68
2022/05/19 04:52:50;;;;;;;8.68;3.90;;;22.60;38.70;;;;;;6284237;27;80213;-66
2022/05/19 04:55:50;;;;;;;8.23;3.58;;;22.60;38.60;;;;;;6280558;27;80735;-67
2022/05/19 04:58:51;;;;;;;11.57;4.47;;;22.60;38.60;;;;;;6274803;27;80296;-67
2022/05/19 05:01:51;;;;;;;10.10;3.70;;;22.60;38.60;;;;;;6284042;27;80827;-69
2022/05/19 05:04:52;;;;;;;8.73;3.72;;;22.70;38.60;;;;;;6282289;27;80201;-66
2022/05/19 05:07:52;;;;;;;11.88;4.50;;;22.60;38.10;;;;;;6284549;27;81265;-67
2022/05/19 05:10:53;;;;;;;22.65;4.65;;;22.40;38.40;;;;;;6282082;27;82169;-70
2022/05/19 05:13:56;;;;;;;15.07;5.90;;;22.30;38.50;;;;;;6283224;27;80310;-69
2022/05/19 05:16:56;;;;;;;8.88;3.92;;;22.20;38.40;;;;;;6283354;27;80284;-68
2022/05/19 05:19:57;;;;;;;9.88;5.18;;;22.10;38.70;;;;;;6283129;27;80513;-68
2022/05/19 05:22:57;;;;;;;12.13;4.68;;;22.10;38.70;;;;;;6283937;27;80539;-68
2022/05/19 05:25:59;;;;;;;10.00;3.97;;;22.00;38.60;;;;;;6281733;27;81507;-67
2022/05/19 05:29:00;;;;;;;13.35;4.85;;;21.90;38.70;;;;;;6283731;27;80280;-67
2022/05/19 05:32:00;;;;;;;15.52;4.93;;;21.90;38.90;;;;;;6283568;27;80479;-67
2022/05/19 05:35:01;;;;;;;14.55;4.68;;;21.90;38.90;;;;;;6281815;27;81063;-69
2022/05/19 05:38:01;;;;;;;28.35;5.15;;;21.90;38.90;;;;;;6283246;27;81372;-69
2022/05/19 05:41:03;;;;;;;13.30;5.22;;;21.90;39.10;;;;;;6273964;27;80456;-70
2022/05/19 05:44:03;;;;;;;21.27;6.78;;;21.90;39.10;;;;;;6283251;27;81032;-67
2022/05/19 05:47:04;;;;;;;16.65;5.50;;;21.80;39.10;;;;;;6274308;27;80334;-70
2022/05/19 05:50:04;;;;;;;11.70;5.18;;;21.80;39.00;;;;;;6283058;27;80592;-68
2022/05/19 05:53:05;;;;;;;8.00;4.47;;;21.80;39.60;;;;;;6282954;27;81723;-66
2022/05/19 05:56:05;;;;;;;15.15;4.85;;;21.80;39.10;;;;;;6282331;27;81542;-66
2022/05/19 05:59:07;;;;;;;13.15;4.30;;;21.90;39.20;;;;;;6275993;27;80452;-66
2022/05/19 06:02:08;;;;;;;10.32;5.10;;;21.90;39.20;;;;;;6282066;27;81690;-65
2022/05/19 06:05:10;;;;;;;20.42;4.72;;;21.90;39.10;;;;;;6282778;27;80671;-65
2022/05/19 06:08:10;;;;;;;10.63;4.82;;;22.00;39.30;;;;;;6282166;27;80859;-66
2022/05/19 06:11:11;;;;;;;11.63;4.10;;;22.00;39.50;;;;;;6278749;27;80466;-66
2022/05/19 06:14:12;;;;;;;14.73;4.90;;;22.00;39.30;;;;;;6282472;27;80312;-66
2022/05/19 06:17:12;;;;;;;22.40;4.55;;;22.00;39.30;;;;;;6282491;27;80479;-66
2022/05/19 06:20:13;;;;;;;14.32;4.88;;;22.00;39.30;;;;;;6281453;27;80374;-65
2022/05/19 06:23:16;;;;;;;11.85;4.82;;;22.00;39.20;;;;;;6282897;27;80489;-65
2022/05/19 06:26:16;;;;;;;12.82;4.30;;;22.00;39.30;;;;;;6279532;27;80304;-66
2022/05/19 06:29:17;;;;;;;16.63;4.63;;;22.00;39.20;;;;;;6282062;27;81059;-67
2022/05/19 06:32:17;;;;;;;12.93;4.43;;;22.10;39.50;;;;;;6282628;27;81233;-66
2022/05/19 06:35:18;;;;;;;17.27;5.35;;;22.10;39.30;;;;;;6282547;27;80602;-66
2022/05/19 06:38:19;;;;;;;20.20;5.13;;;22.10;39.40;;;;;;6280296;27;81576;-66
2022/05/19 06:44:39;;;;;;;15.80;4.43;;;22.10;39.50;;;;;;6282662;27;80071;-66
2022/05/19 06:47:39;;;;;;;14.50;4.88;;;22.10;39.30;;;;;;6282521;27;81517;-66
2022/05/19 06:50:40;;;;;;;21.30;4.80;;;22.10;39.30;;;;;;6282268;27;81325;-67
2022/05/19 06:53:43;;;;;;;20.90;5.55;;;22.10;39.50;;;;;;6273487;27;80575;-67
2022/05/19 06:56:43;;;;;;;18.08;4.93;;;22.10;39.30;;;;;;6282364;27;80857;-66
2022/05/19 06:59:44;;;;;;;13.43;4.38;;;22.10;39.60;;;;;;6280444;27;81689;-66
2022/05/19 07:02:45;;;;;;;16.60;4.85;;;22.20;39.50;;;;;;6282224;27;80379;-66
2022/05/19 07:05:45;;;;;;;13.23;4.25;;;22.20;39.40;;;;;;6278034;27;80475;-66
2022/05/19 07:08:47;;;;;;;11.05;3.72;;;22.20;39.40;;;;;;6275816;27;81647;-65
2022/05/19 07:11:47;;;;;;;8.95;4.22;;;22.20;39.20;;;;;;6270298;27;81125;-66
2022/05/19 07:14:48;;;;;;;13.25;4.10;;;22.20;39.30;;;;;;6277474;27;80313;-68
2022/05/19 07:17:48;;;;;;;10.27;3.50;;;22.20;39.20;;;;;;6270528;27;81572;-66
2022/05/19 07:20:49;;;;;;;8.63;3.00;;;22.20;39.20;;;;;;6277078;27;80742;-67
2022/05/19 07:23:51;;;;;;;9.18;3.63;;;22.30;38.90;;;;;;6275746;27;80236;-66
2022/05/19 07:26:52;;;;;;;8.48;2.88;;;22.20;38.80;;;;;;6269297;27;87253;-67
2022/05/19 07:29:52;;;;;;;8.45;2.97;;;22.30;38.70;;;;;;6270246;27;80336;-67
2022/05/19 07:32:54;;;;;;;12.15;3.13;;;22.30;38.60;;;;;;6286195;27;80552;-69
2022/05/19 07:35:55;;;;;;;9.43;3.20;;;22.30;38.40;;;;;;6286535;27;80407;-68
2022/05/19 07:39:00;;;;;;;8.18;2.55;;;22.40;38.50;;;;;;6286497;27;80523;-68
2022/05/19 07:42:01;;;;;;;11.45;3.22;;;22.30;37.70;;;;;;6286387;27;80181;-70
2022/05/19 07:45:02;;;;;;;6.20;2.35;;;22.30;37.30;;;;;;6281079;27;82328;-69
2022/05/19 07:48:02;;;;;;;8.00;2.28;;;22.10;36.50;;;;;;6286528;27;81367;-68
2022/05/19 07:51:03;;;;;;;4.82;2.17;;;21.90;36.90;;;;;;6286416;27;80609;-69
2022/05/19 07:54:03;;;;;;;4.30;2.05;;;22.00;35.90;;;;;;6286077;27;80329;-69
2022/05/19 07:57:04;;;;;;;7.43;2.42;;;22.00;36.30;;;;;;6286058;27;80700;-69
2022/05/19 08:00:05;;;;;;;7.85;2.22;;;22.10;35.90;;;;;;6284271;27;80545;-69
2022/05/19 08:03:13;;;;;;;11.52;2.30;;;22.10;35.80;;;;;;6281501;27;80814;-69
2022/05/19 08:06:14;;;;;;;5.13;2.80;;;22.10;36.30;;;;;;6285695;27;82354;-69
2022/05/19 08:15:53;;;;;;;18.73;3.17;;;22.20;36.30;;;;;;6271975;27;81583;-68
2022/05/19 08:18:53;;;;;;;16.48;3.28;;;22.40;36.70;;;;;;6272825;27;81049;-69
2022/05/19 08:21:54;;;;;;;7.78;2.65;;;22.30;35.50;;;;;;6262473;27;80926;-70
2022/05/19 08:24:54;;;;;;;13.38;2.72;;;22.30;36.00;;;;;;6265879;27;81475;-69
2022/05/19 08:27:55;;;;;;;5.30;2.22;;;22.40;35.50;;;;;;6263708;27;80695;-69
2022/05/19 08:30:55;;;;;;;4.07;2.00;;;22.40;34.80;;;;;;6270179;27;80590;-71
2022/05/19 08:33:58;;;;;;;3.88;1.80;;;22.20;34.40;;;;;;6276914;27;80581;-70
2022/05/19 08:36:58;;;;;;;6.38;2.63;;;22.10;33.60;;;;;;6267997;27;81110;-71
2022/05/19 08:39:59;;;;;;;6.00;2.67;;;22.10;33.90;;;;;;6265647;27;80492;-69
2022/05/19 08:42:59;;;;;;;3.78;2.22;;;22.20;33.70;;;;;;6265940;27;83193;-69
2022/05/19 08:46:00;;;;;;;6.38;1.90;;;22.20;32.50;;;;;;6266194;27;80435;-69
2022/05/19 08:49:00;;;;;;;3.60;1.90;;;22.20;32.30;;;;;;6270974;27;80776;-66
2022/05/19 08:52:01;;;;;;;9.85;2.45;;;22.40;33.10;;;;;;6284771;27;80421;-68
2022/05/19 08:55:01;;;;;;;5.55;2.22;;;22.50;33.60;;;;;;6284488;27;80398;-68
2022/05/19 08:58:02;;;;;;;4.25;1.67;;;22.30;32.20;;;;;;6283407;27;80385;-68
2022/05/19 09:01:03;;;;;;;4.63;1.75;;;22.20;31.70;;;;;;6281879;27;80316;-69
2022/05/19 09:04:03;;;;;;;7.82;3.50;;;22.30;32.30;;;;;;6283200;27;80368;-68
2022/05/19 09:10:23;;;;;;;4.65;1.73;;;22.40;33.30;;;;;;6277508;27;81083;-74
2022/05/19 09:13:25;;;;;;;9.60;2.70;;;22.40;33.50;;;;;;6272964;27;80321;-68
2022/05/19 09:16:27;;;;;;;21.48;3.42;;;22.50;33.70;;;;;;6281009;27;80363;-67
2022/05/19 09:19:27;;;;;;;11.07;2.67;;;22.60;33.90;;;;;;6284947;27;84809;-71
2022/05/19 09:22:33;;;;;;;5.97;2.10;;;22.60;34.00;;;;;;6283397;27;81851;-70
2022/05/19 09:25:33;;;;;;;4.32;1.85;;;22.60;34.50;;;;;;6277233;27;85949;-69
2022/05/19 09:28:35;;;;;;;6.22;2.13;;;22.70;35.80;;;;;;6272307;27;81303;-69
2022/05/19 09:31:35;;;;;;;3.83;1.90;;;22.70;36.40;;;;;;6269271;27;81582;-69
2022/05/19 09:34:36;;;;;;;10.23;2.10;;;22.80;35.90;;;;;;6284165;27;79977;-68
2022/05/19 09:37:37;;;;;;;11.23;1.80;;;22.90;34.60;;;;;;6284675;27;80654;-69
2022/05/19 09:40:37;;;;;;;4.80;2.10;;;22.90;34.90;;;;;;6283635;27;83631;-68
2022/05/19 09:43:38;;;;;;;3.45;2.13;;;22.90;33.70;;;;;;6278316;27;80656;-69
2022/05/19 09:46:39;;;;;;;4.03;1.92;;;22.90;34.30;;;;;;6284202;27;80021;-69
2022/05/19 09:49:44;;;;;;;9.10;2.40;;;22.90;34.00;;;;;;6284030;27;80229;-70
2022/05/19 09:52:45;;;;;;;2.30;1.80;;;22.90;34.00;;;;;;6283859;27;80891;-68
2022/05/19 09:55:46;;;;;;;6.07;1.77;;;22.80;33.60;;;;;;6283353;27;81497;-69
2022/05/19 09:58:47;;;;;;;6.85;2.17;;;22.80;33.90;;;;;;6283693;27;80329;-68
2022/05/19 10:01:47;;;;;;;5.40;2.13;;;22.90;34.00;;;;;;6283222;27;80468;-68
2022/05/19 10:04:48;;;;;;;6.65;2.42;;;23.00;33.90;;;;;;6283901;27;80221;-68
2022/05/19 10:07:49;;;;;;;4.93;2.53;;;23.10;34.00;;;;;;6282307;27;80927;-69
2022/05/19 10:10:49;;;;;;;3.92;2.22;;;23.20;33.80;;;;;;6282730;27;80898;-66
2022/05/19 10:13:51;;;;;;;6.18;2.13;;;23.10;34.10;;;;;;6284029;27;80795;-73
2022/05/19 10:16:52;;;;;;;3.22;1.70;;;23.00;33.60;;;;;;6283491;27;80375;-71
2022/05/19 10:19:52;;;;;;;2.25;1.75;;;23.00;33.70;;;;;;6283613;27;80092;-73
2022/05/19 10:22:53;;;;;;;2.53;1.70;;;23.10;34.00;;;;;;6281945;27;80465;-70
2022/05/19 10:25:54;;;;;;;4.47;1.90;;;23.20;33.70;;;;;;6279524;27;80381;-74
2022/05/19 10:32:13;;;;;;;5.47;2.08;;;23.30;33.90;;;;;;6280003;27;83053;-67
2022/05/19 10:35:14;;;;;;;4.43;2.30;;;23.30;34.00;;;;;;6282511;27;81343;-66
2022/05/19 10:38:15;;;;;;;8.48;1.83;;;23.30;33.90;;;;;;6283499;27;80714;-71
2022/05/19 10:41:15;;;;;;;4.35;1.77;;;23.30;34.00;;;;;;6283025;27;80619;-69
2022/05/19 10:44:16;;;;;;;6.00;1.88;;;23.30;34.00;;;;;;6281991;27;80409;-69
2022/05/19 10:47:16;;;;;;;3.92;2.40;;;23.40;34.20;;;;;;6281553;27;80195;-71
2022/05/19 10:50:17;;;;;;;2.20;1.90;;;23.40;33.60;;;;;;6282371;27;82036;-69
2022/05/19 10:53:17;;;;;;;4.53;1.80;;;23.30;33.40;;;;;;6275413;27;81620;-67
2022/05/19 10:56:18;;;;;;;2.47;1.70;;;23.20;34.00;;;;;;6272827;27;81774;-66
2022/05/19 10:59:19;;;;;;;3.78;1.70;;;23.20;33.70;;;;;;6271939;27;80433;-66
2022/05/19 11:02:19;;;;;;;6.53;2.20;;;23.40;34.30;;;;;;6270005;27;81289;-66
2022/05/19 11:05:20;;;;;;;6.13;2.15;;;23.40;33.70;;;;;;6270606;27;81367;-66
2022/05/19 11:08:21;;;;;;;4.72;1.90;;;23.50;33.40;;;;;;6270625;27;81863;-66
2022/05/19 11:11:22;;;;;;;4.78;2.28;;;23.50;33.40;;;;;;6276181;27;80496;-67
2022/05/19 11:14:22;;;;;;;7.55;2.30;;;23.60;33.80;;;;;;6286441;27;80647;-70
2022/05/19 11:17:23;;;;;;;4.72;2.15;;;23.50;33.70;;;;;;6286909;27;81024;-71
2022/05/19 11:20:24;;;;;;;5.55;1.77;;;23.40;33.10;;;;;;6286838;27;80726;-70
2022/05/19 11:23:24;;;;;;;4.03;1.80;;;23.40;33.30;;;;;;6286326;27;80378;-68
2022/05/19 11:26:29;;;;;;;3.63;2.10;;;23.40;33.40;;;;;;6286354;27;81532;-69
2022/05/19 11:29:31;;;;;;;4.65;1.67;;;23.30;33.80;;;;;;6286798;27;80231;-69
2022/05/19 11:32:32;;;;;;;34.00;7.80;;;23.40;33.90;;;;;;6284906;27;80398;-67
2022/05/19 11:35:32;;;;;;;34.60;11.95;;;23.40;34.00;;;;;;6285062;27;80813;-68
2022/05/19 11:38:33;;;;;;;17.55;7.05;;;23.50;34.40;;;;;;6283576;27;83132;-68
2022/05/19 11:41:33;;;;;;;17.58;5.25;;;23.50;34.60;;;;;;6286159;27;82698;-68
2022/05/19 11:44:34;;;;;;;72.95;27.92;;;23.60;34.30;;;;;;6286523;27;80796;-69
2022/05/19 11:57:33;;;;;;;12.95;6.15;;;23.40;33.50;;;;;;6284604;27;83270;-67
2022/05/19 12:00:33;;;;;;;13.20;6.00;;;23.50;33.20;;;;;;6286086;27;80794;-67
2022/05/19 12:03:34;;;;;;;11.35;4.43;;;23.60;33.40;;;;;;6284498;27;80417;-67
2022/05/19 12:06:34;;;;;;;8.65;4.03;;;23.70;33.30;;;;;;6285170;27;80237;-66
2022/05/19 12:09:35;;;;;;;5.40;2.85;;;23.80;33.50;;;;;;6266386;27;82477;-67
2022/05/19 12:12:36;;;;;;;10.60;3.13;;;23.90;33.00;;;;;;6283908;27;80217;-69
2022/05/19 12:15:37;;;;;;;7.20;2.33;;;23.90;32.40;;;;;;6284973;27;80701;-71
2022/05/19 12:18:37;;;;;;;17.27;2.30;;;24.00;32.80;;;;;;6286246;27;81581;-72
2022/05/19 12:21:38;;;;;;;9.30;3.13;;;24.00;32.50;;;;;;6285952;27;80245;-72
2022/05/19 12:24:42;;;;;;;7.20;3.38;;;24.00;33.10;;;;;;6285453;27;80462;-70
2022/05/19 12:27:42;;;;;;;7.32;2.72;;;24.00;33.20;;;;;;6285737;27;80307;-73
2022/05/19 12:34:02;;;;;;;3.95;2.25;;;24.00;33.20;;;;;;6285325;27;80666;-73
2022/05/19 12:37:03;;;;;;;6.18;2.10;;;23.90;33.20;;;;;;6285865;27;80949;-73
2022/05/19 12:40:03;;;;;;;5.30;2.30;;;24.00;33.30;;;;;;6286044;27;80566;-72
2022/05/19 12:43:04;;;;;;;4.80;2.35;;;24.00;33.40;;;;;;6274583;27;80135;-67
2022/05/19 12:46:04;;;;;;;4.10;2.45;;;23.90;33.00;;;;;;6285052;27;80276;-69
2022/05/19 12:49:05;;;;;;;5.80;2.90;;;24.00;33.00;;;;;;6285339;27;80378;-70
2022/05/19 12:52:05;;;;;;;5.70;3.00;;;23.90;33.00;;;;;;6285269;27;81021;-67
2022/05/19 12:55:06;;;;;;;16.30;3.30;;;23.90;33.30;;;;;;6284772;27;81523;-71
2022/05/19 12:58:07;;;;;;;5.53;3.00;;;23.90;32.00;;;;;;6284573;27;80035;-71
2022/05/19 13:01:08;;;;;;;3.78;2.13;;;24.00;32.20;;;;;;6284625;27;80269;-70
2022/05/19 13:04:09;;;;;;;2.08;1.88;;;24.00;32.00;;;;;;6280292;27;81228;-70
2022/05/19 13:07:10;;;;;;;13.73;2.17;;;23.90;31.70;;;;;;6280317;27;80217;-70
2022/05/19 13:10:11;;;;;;;6.85;1.75;;;23.90;31.60;;;;;;6284647;27;80339;-69
2022/05/19 13:13:11;;;;;;;4.88;1.70;;;23.90;32.00;;;;;;6284726;27;80698;-70
2022/05/19 13:16:12;;;;;;;4.65;2.05;;;23.90;32.00;;;;;;6276502;27;81881;-70
2022/05/19 13:19:12;;;;;;;3.53;2.03;;;23.90;32.40;;;;;;6284695;27;80898;-69
2022/05/19 13:22:13;;;;;;;3.00;1.90;;;24.00;31.40;;;;;;6281825;27;82422;-70
2022/05/19 13:25:14;;;;;;;3.80;2.00;;;24.00;30.70;;;;;;6283316;27;80175;-70
2022/05/19 13:31:34;;;;;;;4.55;1.92;;;24.20;31.20;;;;;;6284112;27;80302;-70
2022/05/19 13:34:34;;;;;;;4.13;2.42;;;24.20;32.10;;;;;;6284460;27;80416;-70
2022/05/19 13:37:35;;;;;;;2.42;1.77;;;24.10;31.70;;;;;;6284132;27;80157;-71
2022/05/19 13:40:36;;;;;;;5.28;1.80;;;24.10;32.00;;;;;;6284078;27;80534;-71
2022/05/19 13:43:36;;;;;;;1.88;1.70;;;24.10;32.50;;;;;;6283860;27;80400;-70
2022/05/19 13:46:37;;;;;;;11.77;2.20;;;24.00;32.50;;;;;;6279333;27;80421;-70
2022/05/19 13:49:40;;;;;;;7.75;2.47;;;24.00;32.40;;;;;;6283637;27;81145;-69
2022/05/19 13:52:44;;;;;;;6.72;2.30;;;24.00;32.30;;;;;;6284309;27;80601;-69
2022/05/19 13:55:45;;;;;;;6.05;2.30;;;24.00;32.30;;;;;;6283405;27;81426;-69
2022/05/19 13:58:45;;;;;;;5.95;2.30;;;24.00;32.80;;;;;;6283807;27;81025;-69
2022/05/19 14:01:46;;;;;;;6.05;2.25;;;24.00;32.60;;;;;;6283786;27;80384;-69
2022/05/19 14:04:46;;;;;;;3.20;2.22;;;24.00;32.70;;;;;;6283628;27;80474;-72
2022/05/19 14:07:47;;;;;;;7.25;2.00;;;24.00;32.90;;;;;;6281074;27;81950;-70
2022/05/19 14:10:47;;;;;;;5.32;1.70;;;24.00;33.00;;;;;;6279623;27;81864;-70
2022/05/19 14:13:48;;;;;;;3.47;1.83;;;24.10;32.90;;;;;;6283338;27;81398;-69
2022/05/19 14:16:48;;;;;;;5.03;2.28;;;24.00;32.90;;;;;;6282506;27;80546;-68
2022/05/19 14:19:49;;;;;;;5.38;2.35;;;24.00;33.90;;;;;;6282263;27;83068;-68
2022/05/19 14:22:50;;;;;;;2.60;1.80;;;24.00;33.30;;;;;;6276751;27;80220;-68
2022/05/19 14:25:50;;;;;;;2.70;1.90;;;24.10;32.40;;;;;;6280319;27;81836;-69
2022/05/19 14:28:51;;;;;;;4.05;1.80;;;24.10;32.70;;;;;;6285405;27;80932;-68
2022/05/19 14:31:53;;;;;;;6.40;1.95;;;24.10;32.70;;;;;;6286044;27;82948;-70
2022/05/19 14:34:53;;;;;;;1.75;1.60;;;24.10;32.70;;;;;;6276132;27;80082;-70
2022/05/19 14:37:54;;;;;;;2.28;1.60;;;24.10;32.90;;;;;;6268808;27;81118;-70
2022/05/19 14:44:13;;;;;;;2.10;1.70;;;24.10;33.70;;;;;;6265422;27;80086;-70
2022/05/19 14:47:14;;;;;;;3.85;1.80;;;24.10;33.30;;;;;;6268923;27;80367;-70
2022/05/19 14:50:15;;;;;;;4.25;1.65;;;24.10;33.30;;;;;;6269769;27;80224;-69
2022/05/19 14:53:16;;;;;;;4.40;1.88;;;24.10;33.40;;;;;;6269273;27;81867;-70
2022/05/19 14:56:16;;;;;;;3.63;2.00;;;24.10;33.30;;;;;;6269519;27;81726;-70
2022/05/19 14:59:17;;;;;;;6.90;2.20;;;24.00;33.50;;;;;;6265615;27;80527;-70
2022/05/19 15:02:18;;;;;;;3.10;1.95;;;24.10;33.70;;;;;;6271368;27;80891;-70
2022/05/19 15:05:18;;;;;;;3.53;1.83;;;24.00;33.70;;;;;;6283205;27;81078;-67
2022/05/19 15:08:19;;;;;;;7.60;1.70;;;24.00;33.80;;;;;;6284598;27;82265;-67
2022/05/19 15:11:19;;;;;;;2.35;2.00;;;24.00;33.70;;;;;;6281433;27;82717;-68
2022/05/19 15:14:20;;;;;;;2.67;1.65;;;24.00;33.40;;;;;;6285052;27;80248;-67
2022/05/19 15:17:20;;;;;;;6.80;2.53;;;24.00;33.70;;;;;;6285740;27;80558;-70
2022/05/19 15:20:21;;;;;;;7.20;2.35;;;24.00;34.60;;;;;;6287278;27;80230;-69
2022/05/19 15:23:21;;;;;;;6.53;2.40;;;24.10;35.00;;;;;;6285451;27;80286;-69
2022/05/19 15:26:22;;;;;;;3.88;2.03;;;24.00;34.70;;;;;;6285390;27;83332;-69
2022/05/19 15:29:22;;;;;;;2.65;1.90;;;24.00;35.00;;;;;;6287098;27;80258;-68
2022/05/19 15:32:23;;;;;;;4.75;2.40;;;24.00;35.20;;;;;;6283498;27;80685;-69
2022/05/19 15:35:23;;;;;;;3.33;2.10;;;24.00;35.50;;;;;;6286848;27;80389;-72
2022/05/19 15:38:24;;;;;;;3.72;2.05;;;24.00;35.80;;;;;;6286495;27;80181;-71
2022/05/19 15:41:24;;;;;;;5.30;2.75;;;24.00;36.10;;;;;;6285750;27;80506;-68
2022/05/19 15:44:25;;;;;;;8.73;2.42;;;23.90;36.30;;;;;;6283816;27;80607;-72
2022/05/19 15:47:26;;;;;;;5.85;2.42;;;23.90;37.00;;;;;;6277211;27;80325;-75
2022/05/19 15:50:26;;;;;;;4.18;2.05;;;23.90;37.60;;;;;;6286623;27;80417;-75
2022/05/19 15:53:27;;;;;;;3.33;2.13;;;23.90;37.70;;;;;;6286686;27;81648;-74
2022/05/19 15:56:28;;;;;;;8.50;2.38;;;23.90;38.20;;;;;;6287453;27;80418;-73
2022/05/19 15:59:28;;;;;;;6.47;2.30;;;23.90;38.30;;;;;;6278262;27;80529;-73
2022/05/19 16:02:29;;;;;;;8.02;2.33;;;24.00;38.40;;;;;;6286276;27;80295;-73
2022/05/19 16:05:29;;;;;;;5.85;2.17;;;24.00;38.50;;;;;;6286362;27;80431;-69
2022/05/19 16:08:30;;;;;;;5.15;2.42;;;24.00;38.80;;;;;;6285920;27;80341;-67
2022/05/19 16:11:30;;;;;;;6.03;2.03;;;24.00;38.70;;;;;;6286097;27;80236;-71
2022/05/19 16:14:31;;;;;;;2.97;2.10;;;24.00;38.90;;;;;;6285282;27;80324;-69
2022/05/19 16:17:31;;;;;;;16.40;2.13;;;24.00;38.80;;;;;;6285635;27;80694;-68